createdAt,value
2022-08-02T00:00:29.519Z,0.00
2022-08-02T00:01:32.655Z,0.00
2022-08-02T00:02:35.681Z,0.00
2022-08-02T00:03:39.079Z,0.00
2022-08-02T00:04:42.458Z,0.00
2022-08-02T00:05:45.586Z,0.43
2022-08-02T00:06:50.093Z,0.00
2022-08-02T00:07:53.331Z,0.57
2022-08-02T00:08:56.511Z,0.00
2022-08-02T00:09:59.697Z,0.00
2022-08-02T00:11:02.771Z,0.43
2022-08-02T00:12:05.953Z,0.57
2022-08-02T00:13:09.211Z,0.00
2022-08-02T00:14:12.529Z,0.00
2022-08-02T00:15:15.977Z,0.00
2022-08-02T00:16:19.809Z,0.00
2022-08-02T00:17:23.807Z,0.50
2022-08-02T00:18:26.894Z,1.00
2022-08-02T00:19:29.965Z,0.33
2022-08-02T00:20:33.151Z,0.00
2022-08-02T00:21:36.337Z,0.00
2022-08-02T00:22:39.550Z,0.00
2022-08-02T00:24:28.187Z,0.43
2022-08-02T00:24:47.310Z,0.25
2022-08-02T00:25:55.066Z,0.00
2022-08-02T00:26:55.093Z,0.00
2022-08-02T00:27:58.189Z,5.67
2022-08-02T00:29:01.573Z,12.29
2022-08-02T00:30:04.549Z,1.14
2022-08-02T00:31:07.729Z,0.67
2022-08-02T00:32:11.075Z,0.00
2022-08-02T00:33:14.408Z,0.00
2022-08-02T00:34:29.223Z,0.00
2022-08-02T00:35:21.791Z,0.50
2022-08-02T00:36:25.185Z,0.67
2022-08-02T00:37:28.213Z,1.00
2022-08-02T00:38:31.242Z,3.83
2022-08-02T00:39:35.787Z,2.29
2022-08-02T00:40:38.522Z,7.50
2022-08-02T00:41:41.911Z,8.57
2022-08-02T00:42:45.169Z,0.00
2022-08-02T00:43:48.371Z,0.00
2022-08-02T00:44:51.859Z,0.43
2022-08-02T00:46:02.742Z,0.29
2022-08-02T00:46:59.145Z,0.50
2022-08-02T00:48:02.339Z,0.57
2022-08-02T00:49:05.438Z,0.86
2022-08-02T00:50:09.584Z,3.12
2022-08-02T00:51:12.442Z,2.29
2022-08-02T00:52:15.468Z,0.00
2022-08-02T00:53:18.544Z,0.00
2022-08-02T00:54:21.520Z,0.00
2022-08-02T00:55:31.257Z,0.00
2022-08-02T00:56:28.720Z,0.00
2022-08-02T00:57:31.680Z,0.00
2022-08-02T00:58:34.762Z,0.00
2022-08-02T00:59:37.808Z,0.00
2022-08-02T01:00:40.919Z,0.00
2022-08-02T01:01:55.789Z,0.43
2022-08-02T01:02:48.921Z,0.00
2022-08-02T01:03:52.209Z,0.43
2022-08-02T01:04:55.493Z,1.00
2022-08-02T01:06:11.050Z,3.86
2022-08-02T01:07:03.202Z,6.12
2022-08-02T01:08:07.703Z,4.12
2022-08-02T01:09:10.776Z,1.14
2022-08-02T01:10:13.965Z,0.00
2022-08-02T01:11:17.140Z,0.00
2022-08-02T01:12:20.387Z,0.43
2022-08-02T01:13:23.280Z,0.57
2022-08-02T01:14:26.374Z,0.00
2022-08-02T01:15:35.646Z,0.43
2022-08-02T01:16:33.519Z,2.50
2022-08-02T01:17:36.639Z,3.00
2022-08-02T01:18:39.718Z,0.43
2022-08-02T01:19:42.803Z,2.29
2022-08-02T01:20:45.983Z,14.86
2022-08-02T01:21:49.180Z,19.29
2022-08-02T01:23:01.995Z,4.71
2022-08-02T01:23:56.548Z,0.50
2022-08-02T01:24:59.626Z,1.29
2022-08-02T01:26:02.837Z,2.14
2022-08-02T01:27:06.152Z,0.67
2022-08-02T01:28:09.379Z,0.00
2022-08-02T01:29:12.561Z,0.00
2022-08-02T01:30:15.952Z,0.00
2022-08-02T01:31:18.923Z,0.17
2022-08-02T01:32:22.416Z,0.00
2022-08-02T01:33:25.607Z,0.00
2022-08-02T01:34:28.794Z,0.00
2022-08-02T01:35:47.210Z,0.00
2022-08-02T01:36:36.069Z,0.00
2022-08-02T01:37:39.311Z,0.33
2022-08-02T01:38:42.488Z,0.57
2022-08-02T01:39:45.711Z,0.00
2022-08-02T01:40:48.890Z,0.00
2022-08-02T01:41:57.384Z,0.00
2022-08-02T01:42:56.589Z,0.00
2022-08-02T01:43:59.975Z,0.00
2022-08-02T01:45:02.947Z,0.57
2022-08-02T01:46:06.031Z,0.00
2022-08-02T01:47:09.332Z,0.00
2022-08-02T01:48:12.400Z,0.43
2022-08-02T01:49:15.747Z,0.83
2022-08-02T01:50:18.870Z,0.67
2022-08-02T01:51:21.938Z,0.33
2022-08-02T01:52:25.121Z,1.00
2022-08-02T01:53:28.098Z,1.00
2022-08-02T01:54:31.187Z,0.57
2022-08-02T01:55:56.693Z,0.00
2022-08-02T01:56:38.473Z,0.00
2022-08-02T01:57:41.972Z,0.33
2022-08-02T01:58:45.401Z,0.50
2022-08-02T01:59:48.440Z,0.00
2022-08-02T02:00:51.415Z,0.00
2022-08-02T02:01:54.440Z,0.43
2022-08-02T02:02:57.562Z,0.57
2022-08-02T02:04:00.641Z,0.00
2022-08-02T02:05:03.712Z,0.00
2022-08-02T02:06:06.901Z,0.43
2022-08-02T02:07:10.126Z,1.43
2022-08-02T02:08:13.051Z,1.29
2022-08-02T02:09:16.110Z,0.00
2022-08-02T02:10:19.169Z,0.86
2022-08-02T02:12:14.110Z,2.33
2022-08-02T02:12:26.338Z,1.12
2022-08-02T02:13:33.809Z,0.43
2022-08-02T02:14:33.370Z,0.75
2022-08-02T02:15:36.407Z,0.00
2022-08-02T02:16:40.562Z,0.00
2022-08-02T02:17:50.548Z,0.00
2022-08-02T02:18:47.734Z,0.50
2022-08-02T02:19:51.223Z,1.43
2022-08-02T02:20:54.307Z,1.14
2022-08-02T02:21:57.287Z,0.29
2022-08-02T02:23:00.564Z,0.67
2022-08-02T02:24:05.946Z,0.75
2022-08-02T02:25:11.473Z,0.50
2022-08-02T02:26:13.796Z,0.00
2022-08-02T02:27:16.874Z,0.00
2022-08-02T02:28:20.060Z,0.00
2022-08-02T02:29:23.246Z,0.00
2022-08-02T02:30:26.220Z,0.43
2022-08-02T02:31:29.401Z,0.57
2022-08-02T02:32:32.387Z,0.33
2022-08-02T02:33:35.663Z,0.67
2022-08-02T02:34:38.845Z,0.43
2022-08-02T02:35:41.920Z,0.57
2022-08-02T02:36:45.205Z,0.43
2022-08-02T02:37:49.107Z,0.57
2022-08-02T02:38:52.341Z,0.33
2022-08-02T02:39:55.678Z,0.67
2022-08-02T02:40:58.861Z,0.33
2022-08-02T02:42:02.343Z,0.83
2022-08-02T02:43:05.433Z,0.67
2022-08-02T02:44:08.400Z,0.00
2022-08-02T02:45:11.536Z,0.00
2022-08-02T02:46:14.463Z,0.00
2022-08-02T02:47:17.443Z,0.00
2022-08-02T02:48:20.613Z,0.00
2022-08-02T02:49:23.850Z,0.14
2022-08-02T02:50:26.976Z,0.00
2022-08-02T02:51:29.952Z,0.00
2022-08-02T02:52:33.032Z,0.00
2022-08-02T02:54:32.903Z,0.33
2022-08-02T02:54:39.989Z,0.00
2022-08-02T02:56:01.675Z,0.00
2022-08-02T02:56:46.996Z,0.00
2022-08-02T02:57:49.974Z,0.00
2022-08-02T02:58:53.019Z,0.29
2022-08-02T02:59:56.026Z,0.00
2022-08-02T03:00:59.088Z,0.00
2022-08-02T03:02:02.057Z,0.00
2022-08-02T03:03:06.085Z,0.00
2022-08-02T03:04:09.270Z,1.00
2022-08-02T03:05:12.250Z,0.00
2022-08-02T03:06:16.122Z,0.00
2022-08-02T03:07:19.223Z,0.50
2022-08-02T03:08:22.409Z,0.57
2022-08-02T03:09:25.575Z,0.00
2022-08-02T03:10:28.567Z,0.67
2022-08-02T03:11:31.542Z,1.00
2022-08-02T03:12:34.822Z,0.43
2022-08-02T03:13:37.900Z,0.33
2022-08-02T03:14:40.984Z,0.40
2022-08-02T03:15:44.169Z,0.00
2022-08-02T03:16:47.455Z,0.00
2022-08-02T03:17:50.527Z,0.00
2022-08-02T03:18:53.606Z,0.00
2022-08-02T03:19:56.783Z,0.43
2022-08-02T03:20:59.889Z,0.57
2022-08-02T03:22:02.943Z,0.00
2022-08-02T03:23:06.128Z,0.00
2022-08-02T03:24:10.233Z,0.50
2022-08-02T03:25:13.215Z,0.57
2022-08-02T03:26:16.187Z,0.67
2022-08-02T03:27:19.164Z,3.67
2022-08-02T03:28:22.247Z,4.71
2022-08-02T03:29:25.327Z,0.00
2022-08-02T03:30:28.360Z,10.14
2022-08-02T03:31:32.798Z,12.17
2022-08-02T03:32:35.481Z,0.25
2022-08-02T03:33:38.456Z,0.43
2022-08-02T03:34:41.538Z,0.57
2022-08-02T03:35:44.626Z,0.00
2022-08-02T03:36:47.804Z,0.00
2022-08-02T03:37:51.001Z,0.43
2022-08-02T03:38:54.267Z,0.57
2022-08-02T03:39:57.440Z,0.00
2022-08-02T03:41:00.425Z,0.00
2022-08-02T03:42:03.406Z,0.00
2022-08-02T03:43:09.359Z,0.00
2022-08-02T03:44:12.570Z,0.00
2022-08-02T03:45:15.504Z,0.00
2022-08-02T03:46:18.696Z,0.00
2022-08-02T03:47:21.720Z,0.00
2022-08-02T03:48:34.340Z,0.00
2022-08-02T03:49:28.714Z,0.00
2022-08-02T03:50:31.788Z,0.33
2022-08-02T03:51:34.772Z,1.00
2022-08-02T03:52:37.985Z,2.33
2022-08-02T03:53:41.060Z,3.86
2022-08-02T03:54:45.788Z,1.57
2022-08-02T03:55:48.443Z,0.50
2022-08-02T03:56:51.431Z,0.00
2022-08-02T03:57:54.488Z,0.00
2022-08-02T03:58:57.384Z,0.00
2022-08-02T04:00:00.684Z,0.00
2022-08-02T04:01:03.913Z,0.00
2022-08-02T04:02:07.026Z,0.67
2022-08-02T04:03:10.960Z,0.00
2022-08-02T04:04:14.109Z,1.29
2022-08-02T04:05:17.303Z,2.14
2022-08-02T04:06:20.451Z,0.57
2022-08-02T04:08:35.035Z,0.00
2022-08-02T04:08:36.237Z,0.00
2022-08-02T04:09:33.301Z,0.00
2022-08-02T04:10:36.489Z,0.00
2022-08-02T04:11:39.581Z,0.00
2022-08-02T04:12:42.542Z,0.00
2022-08-02T04:13:45.828Z,0.86
2022-08-02T04:14:49.821Z,1.50
2022-08-02T04:15:52.919Z,0.67
2022-08-02T04:16:56.099Z,0.00
2022-08-02T04:17:59.279Z,0.00
2022-08-02T04:19:02.457Z,1.00
2022-08-02T04:20:05.428Z,1.71
2022-08-02T04:21:08.510Z,0.00
2022-08-02T04:22:11.916Z,0.00
2022-08-02T04:23:15.071Z,0.43
2022-08-02T04:24:19.001Z,0.14
2022-08-02T04:25:34.175Z,0.00
2022-08-02T04:26:28.153Z,0.00
2022-08-02T04:28:15.395Z,0.00
2022-08-02T04:28:34.665Z,0.00
2022-08-02T04:29:37.860Z,0.00
2022-08-02T04:30:40.942Z,0.00
2022-08-02T04:31:44.190Z,0.00
2022-08-02T04:32:47.411Z,0.43
2022-08-02T04:33:50.574Z,0.57
2022-08-02T04:35:59.710Z,0.00
2022-08-02T04:37:02.067Z,0.50
2022-08-02T04:38:08.522Z,0.57
2022-08-02T04:39:09.574Z,0.00
2022-08-02T04:40:12.747Z,0.00
2022-08-02T04:41:15.680Z,0.00
2022-08-02T04:42:18.794Z,0.00
2022-08-02T04:43:21.683Z,0.00
2022-08-02T04:44:24.863Z,0.00
2022-08-02T04:45:27.940Z,0.00
2022-08-02T04:46:31.011Z,0.00
2022-08-02T04:48:02.568Z,0.00
2022-08-02T04:48:38.394Z,0.00
2022-08-02T04:49:41.645Z,0.00
2022-08-02T04:50:44.800Z,0.00
2022-08-02T04:51:47.855Z,0.00
2022-08-02T04:52:50.900Z,0.00
2022-08-02T04:53:54.106Z,0.00
2022-08-02T04:54:58.205Z,0.00
2022-08-02T04:56:01.084Z,0.00
2022-08-02T04:57:04.370Z,0.00
2022-08-02T04:58:30.155Z,0.00
2022-08-02T04:59:11.668Z,0.00
2022-08-02T05:00:14.940Z,0.00
2022-08-02T05:01:18.771Z,0.00
2022-08-02T05:02:21.808Z,0.00
2022-08-02T05:03:24.891Z,0.00
2022-08-02T05:04:28.183Z,0.00
2022-08-02T05:05:31.163Z,0.00
2022-08-02T05:06:34.336Z,0.00
2022-08-02T05:07:37.318Z,0.00
2022-08-02T05:08:40.594Z,0.00
2022-08-02T05:09:43.879Z,0.00
2022-08-02T05:10:47.063Z,0.00
2022-08-02T05:11:54.904Z,0.00
2022-08-02T05:12:54.450Z,0.00
2022-08-02T05:13:59.344Z,0.00
2022-08-02T05:15:01.597Z,0.00
2022-08-02T05:16:04.517Z,0.00
2022-08-02T05:17:07.707Z,0.00
2022-08-02T05:18:10.663Z,0.00
2022-08-02T05:19:14.427Z,0.00
2022-08-02T05:20:17.357Z,0.00
2022-08-02T05:21:20.479Z,0.00
2022-08-02T05:22:23.308Z,0.00
2022-08-02T05:23:27.194Z,0.00
2022-08-02T05:24:30.272Z,0.00
2022-08-02T05:25:33.453Z,0.00
2022-08-02T05:26:36.539Z,0.00
2022-08-02T05:27:39.616Z,0.00
2022-08-02T05:28:42.598Z,0.00
2022-08-02T05:29:51.080Z,0.57
2022-08-02T05:30:50.008Z,0.50
2022-08-02T05:31:53.253Z,0.00
2022-08-02T05:32:56.231Z,0.00
2022-08-02T05:33:59.210Z,0.00
2022-08-02T05:35:02.462Z,0.00
2022-08-02T05:36:05.767Z,0.00
2022-08-02T05:37:09.973Z,0.00
2022-08-02T05:38:13.293Z,0.00
2022-08-02T05:39:19.122Z,0.00
2022-08-02T05:40:25.722Z,0.00
2022-08-02T05:41:24.964Z,0.00
2022-08-02T05:42:28.143Z,0.00
2022-08-02T05:43:31.209Z,0.00
2022-08-02T05:44:34.414Z,0.00
2022-08-02T05:45:37.445Z,0.00
2022-08-02T05:46:41.802Z,0.00
2022-08-02T05:47:45.083Z,0.00
2022-08-02T05:48:48.379Z,0.00
2022-08-02T05:49:51.543Z,0.00
2022-08-02T05:50:54.834Z,0.00
2022-08-02T05:51:58.229Z,0.00
2022-08-02T05:53:01.509Z,0.43
2022-08-02T05:54:04.785Z,0.57
2022-08-02T05:55:10.009Z,0.00
2022-08-02T05:56:12.272Z,0.00
2022-08-02T05:57:15.682Z,0.00
2022-08-02T05:58:18.741Z,0.00
2022-08-02T05:59:21.828Z,0.57
2022-08-02T06:00:25.209Z,0.00
2022-08-02T06:01:28.142Z,0.00
2022-08-02T06:02:31.178Z,0.43
2022-08-02T06:03:34.144Z,1.00
2022-08-02T06:04:37.213Z,0.29
2022-08-02T06:05:41.634Z,0.00
2022-08-02T06:06:44.815Z,0.29
2022-08-02T06:07:47.891Z,0.29
2022-08-02T06:08:51.078Z,0.00
2022-08-02T06:09:54.481Z,0.00
2022-08-02T06:10:57.818Z,0.00
2022-08-02T06:12:02.266Z,0.00
2022-08-02T06:13:05.743Z,0.00
2022-08-02T06:14:09.034Z,0.00
2022-08-02T06:15:12.110Z,0.00
2022-08-02T06:16:15.496Z,0.00
2022-08-02T06:17:18.577Z,0.00
2022-08-02T06:18:27.591Z,0.00
2022-08-02T06:19:26.066Z,0.00
2022-08-02T06:20:29.150Z,0.00
2022-08-02T06:22:31.917Z,0.00
2022-08-02T06:22:40.793Z,0.50
2022-08-02T06:23:40.634Z,0.50
2022-08-02T06:24:44.945Z,0.00
2022-08-02T06:25:51.418Z,0.43
2022-08-02T06:26:52.683Z,0.50
2022-08-02T06:27:56.257Z,0.00
2022-08-02T06:28:59.719Z,0.14
2022-08-02T06:30:02.883Z,0.00
2022-08-02T06:31:06.186Z,0.00
2022-08-02T06:32:09.961Z,0.43
2022-08-02T06:33:13.578Z,0.57
2022-08-02T06:34:16.975Z,0.00
2022-08-02T06:35:20.160Z,0.00
2022-08-02T06:36:23.575Z,0.00
2022-08-02T06:37:26.628Z,0.00
2022-08-02T06:38:30.678Z,0.25
2022-08-02T06:39:33.792Z,0.00
2022-08-02T06:40:36.890Z,0.00
2022-08-02T06:41:39.957Z,0.00
2022-08-02T06:42:43.148Z,0.57
2022-08-02T06:43:46.215Z,0.00
2022-08-02T06:44:51.954Z,0.00
2022-08-02T06:45:53.399Z,0.00
2022-08-02T06:47:11.923Z,0.00
2022-08-02T06:48:00.741Z,0.00
2022-08-02T06:49:03.686Z,0.00
2022-08-02T06:50:06.738Z,0.33
2022-08-02T06:51:09.931Z,0.57
2022-08-02T06:52:13.112Z,0.00
2022-08-02T06:53:16.291Z,0.00
2022-08-02T06:54:19.368Z,0.43
2022-08-02T06:55:22.443Z,0.17
2022-08-02T06:56:25.626Z,0.00
2022-08-02T06:57:28.710Z,0.00
2022-08-02T06:58:31.848Z,0.00
2022-08-02T06:59:34.870Z,0.33
2022-08-02T07:00:38.008Z,0.57
2022-08-02T07:01:41.181Z,0.00
2022-08-02T07:02:44.404Z,0.00
2022-08-02T07:03:47.808Z,0.00
2022-08-02T07:04:51.222Z,0.00
2022-08-02T07:05:54.479Z,0.33
2022-08-02T07:06:57.735Z,1.00
2022-08-02T07:08:00.989Z,0.33
2022-08-02T07:09:21.130Z,0.43
2022-08-02T07:10:09.054Z,1.00
2022-08-02T07:11:12.331Z,1.57
2022-08-02T07:12:15.702Z,1.00
2022-08-02T07:13:18.995Z,1.00
2022-08-02T07:14:23.162Z,1.50
2022-08-02T07:15:26.173Z,1.29
2022-08-02T07:16:29.267Z,1.67
2022-08-02T07:17:32.313Z,1.00
2022-08-02T07:18:35.225Z,1.00
2022-08-02T07:19:38.462Z,0.67
2022-08-02T07:20:41.582Z,0.29
2022-08-02T07:21:59.604Z,0.57
2022-08-02T07:22:49.484Z,0.50
2022-08-02T07:23:52.968Z,0.83
2022-08-02T07:24:56.254Z,0.57
2022-08-02T07:26:04.149Z,0.00
2022-08-02T07:27:12.323Z,1.00
2022-08-02T07:28:09.747Z,1.00
2022-08-02T07:29:12.872Z,0.50
2022-08-02T07:30:16.156Z,0.43
2022-08-02T07:31:19.439Z,0.57
2022-08-02T07:32:22.694Z,0.00
2022-08-02T07:33:38.119Z,0.43
2022-08-02T07:34:30.103Z,0.50
2022-08-02T07:35:33.184Z,0.43
2022-08-02T07:36:37.283Z,0.50
2022-08-02T07:37:55.500Z,0.00
2022-08-02T07:38:45.593Z,0.00
2022-08-02T07:39:48.964Z,0.43
2022-08-02T07:40:52.227Z,1.00
2022-08-02T07:41:55.663Z,0.57
2022-08-02T07:43:03.542Z,0.00
2022-08-02T07:44:03.253Z,0.00
2022-08-02T07:45:06.448Z,0.43
2022-08-02T07:46:09.507Z,0.57
2022-08-02T07:47:13.355Z,0.57
2022-08-02T07:48:16.899Z,0.13
2022-08-02T07:49:20.232Z,1.00
2022-08-02T07:50:23.430Z,1.00
2022-08-02T07:51:26.452Z,0.67
2022-08-02T07:52:29.727Z,0.43
2022-08-02T07:53:51.759Z,1.14
2022-08-02T07:54:37.111Z,1.37
2022-08-02T07:55:40.834Z,1.00
2022-08-02T07:56:43.881Z,1.00
2022-08-02T07:57:47.287Z,1.00
2022-08-02T07:58:50.515Z,1.00
2022-08-02T07:59:53.643Z,0.71
2022-08-02T08:00:56.675Z,1.00
2022-08-02T08:01:59.938Z,0.57
2022-08-02T08:03:03.242Z,1.00
2022-08-02T08:04:06.568Z,0.57
2022-08-02T08:05:10.034Z,0.86
2022-08-02T08:06:13.349Z,1.57
2022-08-02T08:07:16.525Z,1.00
2022-08-02T08:08:19.611Z,1.00
2022-08-02T08:09:22.745Z,0.67
2022-08-02T08:10:25.863Z,0.43
2022-08-02T08:11:28.895Z,1.00
2022-08-02T08:12:31.924Z,0.67
2022-08-02T08:13:35.103Z,0.43
2022-08-02T08:14:38.181Z,1.00
2022-08-02T08:15:41.062Z,1.00
2022-08-02T08:16:44.046Z,0.57
2022-08-02T08:17:47.015Z,0.00
2022-08-02T08:18:49.885Z,0.86
2022-08-02T08:19:53.121Z,1.67
2022-08-02T08:20:56.330Z,0.57
2022-08-02T08:21:59.435Z,0.43
2022-08-02T08:23:02.623Z,1.43
2022-08-02T08:24:05.695Z,1.67
2022-08-02T08:25:08.781Z,1.00
2022-08-02T08:26:15.618Z,1.00
2022-08-02T08:27:16.376Z,1.00
2022-08-02T08:28:19.349Z,1.00
2022-08-02T08:29:22.384Z,2.29
2022-08-02T08:30:25.261Z,3.00
2022-08-02T08:31:28.274Z,1.43
2022-08-02T08:32:31.351Z,2.00
2022-08-02T08:33:34.833Z,2.00
2022-08-02T08:34:37.912Z,1.67
2022-08-02T08:35:40.990Z,1.00
2022-08-02T08:36:44.076Z,1.00
2022-08-02T08:37:47.254Z,1.00
2022-08-02T08:38:50.282Z,1.14
2022-08-02T08:39:58.384Z,1.67
2022-08-02T08:40:57.313Z,1.00
2022-08-02T08:42:00.393Z,1.00
2022-08-02T08:43:03.581Z,0.33
2022-08-02T08:44:06.769Z,1.43
2022-08-02T08:45:09.835Z,1.57
2022-08-02T08:46:12.772Z,1.00
2022-08-02T08:47:15.856Z,1.33
2022-08-02T08:48:30.465Z,1.57
2022-08-02T08:49:23.041Z,1.50
2022-08-02T08:50:26.187Z,2.00
2022-08-02T08:51:29.092Z,2.00
2022-08-02T08:52:33.350Z,2.00
2022-08-02T08:53:37.077Z,1.67
2022-08-02T08:54:40.324Z,1.43
2022-08-02T08:55:43.408Z,1.57
2022-08-02T08:56:46.485Z,1.00
2022-08-02T08:57:49.666Z,1.00
2022-08-02T08:58:52.853Z,1.43
2022-08-02T08:59:55.833Z,2.14
2022-08-02T09:00:58.881Z,2.67
2022-08-02T09:02:21.530Z,1.57
2022-08-02T09:03:06.056Z,1.75
2022-08-02T09:04:08.954Z,2.00
2022-08-02T09:05:12.249Z,2.00
2022-08-02T09:06:15.520Z,1.57
2022-08-02T09:07:18.510Z,1.14
2022-08-02T09:08:21.485Z,2.00
2022-08-02T09:09:24.564Z,2.43
2022-08-02T09:10:27.783Z,2.67
2022-08-02T09:11:31.376Z,2.14
2022-08-02T09:12:34.344Z,2.00
2022-08-02T09:13:45.781Z,2.00
2022-08-02T09:14:42.087Z,2.00
2022-08-02T09:15:45.479Z,2.00
2022-08-02T09:16:48.757Z,2.00
2022-08-02T09:17:52.146Z,1.86
2022-08-02T09:18:55.533Z,2.00
2022-08-02T09:19:58.925Z,2.00
2022-08-02T09:21:02.104Z,2.00
2022-08-02T09:22:06.510Z,2.00
2022-08-02T09:23:09.900Z,1.57
2022-08-02T09:24:13.484Z,1.43
2022-08-02T09:25:16.633Z,2.00
2022-08-02T09:26:19.617Z,1.67
2022-08-02T09:27:22.812Z,1.43
2022-08-02T09:28:25.916Z,1.86
2022-08-02T09:29:29.064Z,2.00
2022-08-02T09:30:32.688Z,2.00
2022-08-02T09:31:36.682Z,1.57
2022-08-02T09:32:40.071Z,1.86
2022-08-02T09:33:43.461Z,2.57
2022-08-02T09:34:47.064Z,2.00
2022-08-02T09:36:05.225Z,1.50
2022-08-02T09:36:54.949Z,1.25
2022-08-02T09:37:59.355Z,1.25
2022-08-02T09:39:02.642Z,1.43
2022-08-02T09:40:05.895Z,1.00
2022-08-02T09:41:09.514Z,1.00
2022-08-02T09:42:14.242Z,1.00
2022-08-02T09:43:17.926Z,1.00
2022-08-02T09:44:21.210Z,1.00
2022-08-02T09:45:24.597Z,1.86
2022-08-02T09:46:27.832Z,2.14
2022-08-02T09:47:31.257Z,1.43
2022-08-02T09:48:34.756Z,1.29
2022-08-02T09:49:38.419Z,1.00
2022-08-02T09:50:41.482Z,1.14
2022-08-02T09:51:44.715Z,1.67
2022-08-02T09:52:48.713Z,1.00
2022-08-02T09:53:58.556Z,1.00
2022-08-02T09:54:56.356Z,1.00
2022-08-02T09:55:59.595Z,1.00
2022-08-02T09:57:02.774Z,1.00
2022-08-02T09:58:06.057Z,1.00
2022-08-02T09:59:09.544Z,1.00
2022-08-02T10:00:16.165Z,1.00
2022-08-02T10:01:17.064Z,1.50
2022-08-02T10:02:22.561Z,1.00
2022-08-02T10:03:35.137Z,1.00
2022-08-02T10:04:30.451Z,1.12
2022-08-02T10:05:36.254Z,0.50
2022-08-02T10:06:38.013Z,0.13
2022-08-02T10:07:41.253Z,0.17
2022-08-02T10:08:44.192Z,0.86
2022-08-02T10:09:47.656Z,1.00
2022-08-02T10:10:51.406Z,1.00
2022-08-02T10:11:54.691Z,1.57
2022-08-02T10:12:57.973Z,0.86
2022-08-02T10:14:01.462Z,1.00
2022-08-02T10:15:04.745Z,1.00
2022-08-02T10:16:08.012Z,1.00
2022-08-02T10:17:11.313Z,0.57
2022-08-02T10:18:36.906Z,1.00
2022-08-02T10:20:02.675Z,1.50
2022-08-02T10:20:23.421Z,1.00
2022-08-02T10:21:26.610Z,1.00
2022-08-02T10:22:29.887Z,1.00
2022-08-02T10:23:33.150Z,1.00
2022-08-02T10:24:36.452Z,1.00
2022-08-02T10:25:39.840Z,1.00
2022-08-02T10:26:43.024Z,1.00
2022-08-02T10:28:04.126Z,1.00
2022-08-02T10:28:50.614Z,1.00
2022-08-02T10:29:55.817Z,0.57
2022-08-02T10:30:58.313Z,1.50
2022-08-02T10:32:01.656Z,1.57
2022-08-02T10:33:04.989Z,0.86
2022-08-02T10:34:08.123Z,0.86
2022-08-02T10:35:19.563Z,1.00
2022-08-02T10:36:15.548Z,1.00
2022-08-02T10:37:18.750Z,1.00
2022-08-02T10:38:21.987Z,1.00
2022-08-02T10:39:25.195Z,0.57
2022-08-02T10:40:28.586Z,0.43
2022-08-02T10:41:31.970Z,1.43
2022-08-02T10:42:35.570Z,1.57
2022-08-02T10:43:38.743Z,1.00
2022-08-02T10:44:42.037Z,1.00
2022-08-02T10:45:47.848Z,1.00
2022-08-02T10:46:49.730Z,0.50
2022-08-02T10:47:53.461Z,0.00
2022-08-02T10:48:56.733Z,0.43
2022-08-02T10:50:00.049Z,1.00
2022-08-02T10:51:03.371Z,0.57
2022-08-02T10:52:06.777Z,0.57
2022-08-02T10:53:10.043Z,0.00
2022-08-02T10:54:13.186Z,0.43
2022-08-02T10:55:22.345Z,1.00
2022-08-02T10:56:20.714Z,1.00
2022-08-02T10:57:23.897Z,0.57
2022-08-02T10:58:29.389Z,0.43
2022-08-02T10:59:31.410Z,0.50
2022-08-02T11:00:34.815Z,0.00
2022-08-02T11:01:38.697Z,0.00
2022-08-02T11:02:42.364Z,0.50
2022-08-02T11:03:45.769Z,0.71
2022-08-02T11:04:49.650Z,0.57
2022-08-02T11:05:52.831Z,0.43
2022-08-02T11:06:55.866Z,0.57
2022-08-02T11:07:59.203Z,0.00
2022-08-02T11:09:04.393Z,0.00
2022-08-02T11:10:06.859Z,0.50
2022-08-02T11:11:09.932Z,0.57
2022-08-02T11:12:13.362Z,0.00
2022-08-02T11:13:16.803Z,0.50
2022-08-02T11:14:20.236Z,0.67
2022-08-02T11:15:23.412Z,0.00
2022-08-02T11:16:26.700Z,0.00
2022-08-02T11:17:38.756Z,0.00
2022-08-02T11:18:35.419Z,0.13
2022-08-02T11:19:38.698Z,0.57
2022-08-02T11:20:43.007Z,0.00
2022-08-02T11:21:47.915Z,0.00
2022-08-02T11:22:51.219Z,0.00
2022-08-02T11:23:54.501Z,0.00
2022-08-02T11:24:57.988Z,0.00
2022-08-02T11:26:10.937Z,0.00
2022-08-02T11:27:05.743Z,0.00
2022-08-02T11:28:09.068Z,0.43
2022-08-02T11:29:16.040Z,1.00
2022-08-02T11:30:16.968Z,0.50
2022-08-02T11:31:20.256Z,0.00
2022-08-02T11:32:30.779Z,0.00
2022-08-02T11:33:27.952Z,0.00
2022-08-02T11:34:36.690Z,0.00
2022-08-02T11:35:35.502Z,0.00
2022-08-02T11:36:38.623Z,0.00
2022-08-02T11:37:41.908Z,0.00
2022-08-02T11:38:45.496Z,0.00
2022-08-02T11:39:48.883Z,0.00
2022-08-02T11:40:57.573Z,0.00
2022-08-02T11:41:56.887Z,0.25
2022-08-02T11:43:01.497Z,0.13
2022-08-02T11:44:04.993Z,0.00
2022-08-02T11:45:08.588Z,0.00
2022-08-02T11:46:12.069Z,0.00
2022-08-02T11:47:15.454Z,0.00
2022-08-02T11:48:18.849Z,0.00
2022-08-02T11:49:22.383Z,0.14
2022-08-02T11:50:30.469Z,0.00
2022-08-02T11:51:30.127Z,0.00
2022-08-02T11:52:33.518Z,0.43
2022-08-02T11:53:36.697Z,0.57
2022-08-02T11:54:39.982Z,0.00
2022-08-02T11:55:43.222Z,0.00
2022-08-02T11:56:46.551Z,0.00
2022-08-02T11:58:04.382Z,0.00
2022-08-02T11:58:54.555Z,0.00
2022-08-02T11:59:57.940Z,0.00
2022-08-02T12:01:01.428Z,0.00
2022-08-02T12:02:05.020Z,0.00
2022-08-02T12:03:08.379Z,0.00
2022-08-02T12:04:11.892Z,0.00
2022-08-02T12:05:15.056Z,0.00
2022-08-02T12:06:18.106Z,0.00
2022-08-02T12:07:30.394Z,0.00
2022-08-02T12:08:27.079Z,0.00
2022-08-02T12:09:30.980Z,0.00
2022-08-02T12:10:34.165Z,0.00
2022-08-02T12:11:38.777Z,0.00
2022-08-02T12:12:41.754Z,0.50
2022-08-02T12:13:44.969Z,1.00
2022-08-02T12:14:49.100Z,1.00
2022-08-02T12:15:52.231Z,0.57
2022-08-02T12:16:55.386Z,0.00
2022-08-02T12:17:58.659Z,0.43
2022-08-02T12:19:01.717Z,0.67
2022-08-02T12:20:05.341Z,0.43
2022-08-02T12:21:08.396Z,0.43
2022-08-02T12:22:11.987Z,1.00
2022-08-02T12:23:15.617Z,1.00
2022-08-02T12:24:19.008Z,0.57
2022-08-02T12:25:33.357Z,0.43
2022-08-02T12:26:27.211Z,1.00
2022-08-02T12:27:30.348Z,1.00
2022-08-02T12:28:33.678Z,0.67
2022-08-02T12:29:55.648Z,0.00
2022-08-02T12:30:41.291Z,0.00
2022-08-02T12:31:56.445Z,0.57
2022-08-02T12:32:48.823Z,1.00
2022-08-02T12:33:52.249Z,0.57
2022-08-02T12:34:55.637Z,0.00
2022-08-02T12:35:58.881Z,0.00
2022-08-02T12:37:02.242Z,0.43
2022-08-02T12:38:05.449Z,0.43
2022-08-02T12:39:08.628Z,0.57
2022-08-02T12:40:11.811Z,0.00
2022-08-02T12:41:30.530Z,0.17
2022-08-02T12:42:19.750Z,0.00
2022-08-02T12:43:23.040Z,0.00
2022-08-02T12:44:26.073Z,0.00
2022-08-02T12:45:41.231Z,0.00
2022-08-02T12:46:35.584Z,0.00
2022-08-02T12:47:38.119Z,0.75
2022-08-02T12:48:56.557Z,0.00
2022-08-02T12:49:45.708Z,0.00
2022-08-02T12:50:48.954Z,0.00
2022-08-02T12:51:56.961Z,0.00
2022-08-02T12:52:56.642Z,0.00
2022-08-02T12:54:00.407Z,0.00
2022-08-02T12:55:03.972Z,0.00
2022-08-02T12:56:07.265Z,0.00
2022-08-02T12:57:11.048Z,0.00
2022-08-02T12:58:14.753Z,0.00
2022-08-02T12:59:19.057Z,0.00
2022-08-02T13:00:22.446Z,0.00
2022-08-02T13:01:25.736Z,0.00
2022-08-02T13:02:29.223Z,0.00
2022-08-02T13:04:11.010Z,0.00
2022-08-02T13:04:36.701Z,0.00
2022-08-02T13:05:57.042Z,0.00
2022-08-02T13:06:45.417Z,0.00
2022-08-02T13:07:49.120Z,0.00
2022-08-02T13:08:52.509Z,0.00
2022-08-02T13:10:02.600Z,0.00
2022-08-02T13:11:00.311Z,0.00
2022-08-02T13:12:03.690Z,0.00
2022-08-02T13:13:07.178Z,0.00
2022-08-02T13:14:10.458Z,0.00
2022-08-02T13:15:48.990Z,0.00
2022-08-02T13:16:18.263Z,0.00
2022-08-02T13:17:22.724Z,0.00
2022-08-02T13:18:26.265Z,0.00
2022-08-02T13:19:31.226Z,0.00
2022-08-02T13:20:34.776Z,0.50
2022-08-02T13:21:41.709Z,0.57
2022-08-02T13:22:51.141Z,0.00
2022-08-02T13:23:54.105Z,0.00
2022-08-02T13:24:56.687Z,0.00
2022-08-02T13:25:57.343Z,0.50
2022-08-02T13:27:07.785Z,0.43
2022-08-02T13:28:05.399Z,0.00
2022-08-02T13:29:08.629Z,0.00
2022-08-02T13:30:12.223Z,0.00
2022-08-02T13:31:35.932Z,0.00
2022-08-02T13:32:20.220Z,0.00
2022-08-02T13:33:23.705Z,0.00
2022-08-02T13:34:26.996Z,0.00
2022-08-02T13:35:30.280Z,0.00
2022-08-02T13:36:33.560Z,0.00
2022-08-02T13:37:40.214Z,0.00
2022-08-02T13:38:41.156Z,0.00
2022-08-02T13:39:55.633Z,0.43
2022-08-02T13:41:03.496Z,0.50
2022-08-02T13:41:52.958Z,0.50
2022-08-02T13:42:56.089Z,0.57
2022-08-02T13:44:08.912Z,0.00
2022-08-02T13:45:12.450Z,0.00
2022-08-02T13:46:08.149Z,0.00
2022-08-02T13:47:11.316Z,0.00
2022-08-02T13:48:17.148Z,0.00
2022-08-02T13:49:20.165Z,0.00
2022-08-02T13:50:23.271Z,0.00
2022-08-02T13:51:27.627Z,0.00
2022-08-02T13:52:30.818Z,0.00
2022-08-02T13:53:33.996Z,0.00
2022-08-02T13:54:37.269Z,0.00
2022-08-02T13:55:43.432Z,0.00
2022-08-02T13:56:44.768Z,0.00
2022-08-02T13:57:53.369Z,0.00
2022-08-02T13:58:52.357Z,0.00
2022-08-02T13:59:59.115Z,0.00
2022-08-02T14:00:59.951Z,0.00
2022-08-02T14:02:03.199Z,0.33
2022-08-02T14:03:06.285Z,0.57
2022-08-02T14:04:09.735Z,0.00
2022-08-02T14:05:12.987Z,0.00